Antonito, Colorado
Current Conditions -  °F | °C
As of 1:52 PM on Friday 31 Oct 2014 (Local Time) from KALS Reporting Station
Clear Clear  
Wind Chill: 62°   Ceiling: Unl
Heat Index: 62°   Visibility: 10mi
Dew Point: 21°   Wind: 7mph
Humidity: 21%   Direction: 160°SSE
Pressure: 30.29"   Gusts: 17mph
Location:  37.08°N, 106.01°W
Report Text: KALS 311952Z AUTO 16006G15KT 10SM CLR 17/M06 A3029 RMK AO2 SLP211 T01671061
Loading
Personal Weather Stations






























Interactive Weather Map
Tropical Storm Tracking
New forecast layout! Learn more

10-Day Weather Forecast

Advertisements
Track Severe Weather on mobile